Time;durP1;ratioP1;P1;durP2;ratioP2;P2;SDS_P1;SDS_P2;PMS_P1;PMS_P2;Temp;Humidity;BMP_temperature;BMP_pressure;BME280_temperature;BME280_humidity;BME280_pressure;Samples;Min_cycle;Max_cycle;Signal;HPM_P1;HPM_P2
2023/07/03 00:01:31;;;;;;;3.95;1.73;;;16.30;98.40;;;;;;5079906;28;20036;-71
2023/07/03 00:03:57;;;;;;;7.38;1.83;;;16.20;98.40;;;;;;5056818;28;20106;-72
2023/07/03 00:06:23;;;;;;;5.45;2.10;;;16.20;98.50;;;;;;5080885;28;20036;-71
2023/07/03 00:08:48;;;;;;;6.03;1.80;;;16.20;98.60;;;;;;5083596;28;20543;-71
2023/07/03 00:11:14;;;;;;;10.98;2.53;;;16.10;98.70;;;;;;5073192;28;20518;-71
2023/07/03 00:13:40;;;;;;;5.65;1.73;;;16.10;98.80;;;;;;5077361;28;20036;-72
2023/07/03 00:16:05;;;;;;;6.03;2.03;;;16.10;98.90;;;;;;5076238;28;20070;-71
2023/07/03 00:18:31;;;;;;;5.97;1.77;;;16.10;98.90;;;;;;5079502;28;20047;-71
2023/07/03 00:20:57;;;;;;;8.27;1.90;;;16.10;99.00;;;;;;5077299;28;20116;-71
2023/07/03 00:23:25;;;;;;;8.45;2.25;;;16.00;99.10;;;;;;5080551;28;20063;-71
2023/07/03 00:25:51;;;;;;;10.68;2.33;;;16.10;99.10;;;;;;5074621;28;20044;-71
2023/07/03 00:28:16;;;;;;;8.05;1.92;;;16.10;99.10;;;;;;5078780;28;20093;-71
2023/07/03 00:30:43;;;;;;;8.18;1.83;;;16.00;99.10;;;;;;5077691;28;20039;-71
2023/07/03 00:33:10;;;;;;;6.47;1.75;;;16.00;99.20;;;;;;5077922;28;20040;-71
2023/07/03 00:35:35;;;;;;;6.90;1.98;;;16.00;99.30;;;;;;5068379;28;20505;-72
2023/07/03 00:38:01;;;;;;;8.35;2.17;;;16.00;99.30;;;;;;5078289;28;20437;-72
2023/07/03 00:40:27;;;;;;;7.75;2.08;;;15.90;99.40;;;;;;5056344;28;20064;-72
2023/07/03 00:42:52;;;;;;;8.32;2.65;;;16.00;99.50;;;;;;5060078;28;20119;-72
2023/07/03 00:45:19;;;;;;;4.85;1.95;;;15.90;99.50;;;;;;5058850;28;20044;-71
2023/07/03 00:47:45;;;;;;;7.00;1.77;;;15.90;99.50;;;;;;5069582;28;20047;-72
2023/07/03 00:50:11;;;;;;;7.57;2.20;;;15.90;99.50;;;;;;5069710;28;20119;-71
2023/07/03 00:52:38;;;;;;;9.45;2.15;;;15.90;99.60;;;;;;5081673;28;20539;-72
2023/07/03 00:55:06;;;;;;;5.63;2.10;;;15.90;99.60;;;;;;5077160;28;20036;-71
2023/07/03 00:57:31;;;;;;;8.90;2.08;;;15.90;99.60;;;;;;5078364;28;20040;-71
2023/07/03 00:59:58;;;;;;;6.43;1.88;;;15.90;99.70;;;;;;5076858;28;20618;-72
2023/07/03 01:02:35;;;;;;;8.82;2.40;;;15.90;99.70;;;;;;5063230;28;20074;-71
2023/07/03 01:05:14;;;;;;;10.27;2.13;;;15.90;99.90;;;;;;5067647;28;20033;-72
2023/07/03 01:07:41;;;;;;;5.75;1.77;;;15.90;99.90;;;;;;5063464;28;20687;-72
2023/07/03 01:10:16;;;;;;;10.35;2.05;;;15.90;99.90;;;;;;5070721;28;20490;-72
2023/07/03 01:12:45;;;;;;;5.30;1.33;;;15.90;99.90;;;;;;5080262;28;20050;-71
2023/07/03 01:15:17;;;;;;;8.13;2.22;;;15.90;99.90;;;;;;5056524;28;20390;-71
2023/07/03 01:17:47;;;;;;;11.57;2.03;;;15.90;99.90;;;;;;5079976;28;20178;-71
2023/07/03 01:20:17;;;;;;;10.40;2.40;;;15.90;99.90;;;;;;5079338;28;20107;-71
2023/07/03 01:23:03;;;;;;;8.15;2.00;;;15.80;99.90;;;;;;5077411;28;20382;-71
2023/07/03 01:25:30;;;;;;;10.70;2.05;;;15.90;99.90;;;;;;5069420;28;20052;-71
2023/07/03 01:27:58;;;;;;;6.25;1.75;;;15.90;99.90;;;;;;5077273;28;20093;-71
2023/07/03 01:30:25;;;;;;;9.73;2.00;;;15.90;99.90;;;;;;5071188;28;20124;-71
2023/07/03 01:32:53;;;;;;;5.47;1.65;;;15.90;99.90;;;;;;5076447;28;20047;-71
2023/07/03 01:35:21;;;;;;;8.70;2.05;;;15.90;99.90;;;;;;5068836;28;20129;-72
2023/07/03 01:37:48;;;;;;;7.63;1.92;;;15.90;99.90;;;;;;5069510;28;20078;-72
2023/07/03 01:40:17;;;;;;;8.10;1.80;;;15.90;99.90;;;;;;5073741;28;20040;-72
2023/07/03 01:42:44;;;;;;;7.93;1.70;;;15.90;99.90;;;;;;5061599;28;20044;-72
2023/07/03 01:45:10;;;;;;;6.78;1.73;;;15.90;99.90;;;;;;5054915;28;20044;-72
2023/07/03 01:47:37;;;;;;;8.82;1.90;;;15.90;99.90;;;;;;5084245;28;20048;-72
2023/07/03 01:50:04;;;;;;;9.45;2.13;;;15.90;99.90;;;;;;5085338;28;20052;-72
2023/07/03 01:52:38;;;;;;;6.30;1.80;;;15.90;99.90;;;;;;5067401;28;20051;-72
2023/07/03 01:55:32;;;;;;;6.22;1.52;;;15.90;99.90;;;;;;5073193;28;20039;-72
2023/07/03 01:58:14;;;;;;;6.40;2.33;;;15.90;99.90;;;;;;5074319;28;20093;-72
2023/07/03 02:00:48;;;;;;;10.43;1.75;;;15.90;99.90;;;;;;5080744;28;20048;-72
2023/07/03 02:03:43;;;;;;;8.93;2.67;;;15.90;99.90;;;;;;5078896;28;20233;-72
2023/07/03 02:06:20;;;;;;;6.05;1.90;;;15.90;99.90;;;;;;5065716;28;20102;-72
2023/07/03 02:08:48;;;;;;;14.85;2.65;;;16.00;99.90;;;;;;5073693;28;20040;-72
2023/07/03 02:11:19;;;;;;;6.75;1.83;;;15.90;99.90;;;;;;5079197;28;20039;-72
2023/07/03 02:13:44;;;;;;;8.15;1.88;;;15.90;99.90;;;;;;5073495;28;20430;-72
2023/07/03 02:16:10;;;;;;;7.95;1.67;;;15.90;99.90;;;;;;5060847;28;20032;-72
2023/07/03 02:18:36;;;;;;;9.57;1.80;;;15.90;99.90;;;;;;5060434;28;20080;-72
2023/07/03 02:21:04;;;;;;;10.93;2.38;;;15.90;99.90;;;;;;5073540;28;20039;-72
2023/07/03 02:23:31;;;;;;;5.95;1.50;;;15.90;99.90;;;;;;5075512;28;20041;-72
2023/07/03 02:25:57;;;;;;;8.07;1.80;;;15.90;99.90;;;;;;5076162;28;20091;-72
2023/07/03 02:28:23;;;;;;;10.48;2.35;;;15.90;99.90;;;;;;5077777;28;20071;-72
2023/07/03 02:30:48;;;;;;;4.53;1.45;;;15.90;99.90;;;;;;5079195;28;20081;-72
2023/07/03 02:33:14;;;;;;;9.02;1.83;;;15.90;99.90;;;;;;5075998;28;20097;-72
2023/07/03 02:35:41;;;;;;;7.97;1.92;;;16.00;99.90;;;;;;5069029;28;20508;-72
2023/07/03 02:38:08;;;;;;;6.97;1.67;;;15.90;99.90;;;;;;5069801;28;20040;-72
2023/07/03 02:40:34;;;;;;;9.48;2.20;;;15.90;99.90;;;;;;5075045;28;20062;-72
2023/07/03 02:43:00;;;;;;;11.93;1.70;;;15.90;99.90;;;;;;5077883;28;20055;-72
2023/07/03 02:45:26;;;;;;;6.28;1.50;;;16.00;99.90;;;;;;5076513;28;20032;-72
2023/07/03 02:47:51;;;;;;;7.82;1.88;;;15.90;99.90;;;;;;5077939;28;20043;-72
2023/07/03 02:50:17;;;;;;;5.28;1.92;;;15.90;99.90;;;;;;5073456;28;20037;-72
2023/07/03 02:52:43;;;;;;;8.90;1.60;;;15.90;99.90;;;;;;5078790;28;20094;-72
2023/07/03 02:55:08;;;;;;;7.43;1.73;;;15.90;99.90;;;;;;5071492;28;20032;-72
2023/07/03 02:57:34;;;;;;;5.95;2.00;;;15.80;99.90;;;;;;5075358;28;20044;-72
2023/07/03 02:59:59;;;;;;;8.57;1.92;;;15.80;99.90;;;;;;5078027;28;20036;-72
2023/07/03 03:02:26;;;;;;;5.47;1.63;;;15.80;99.90;;;;;;5077742;28;20714;-72
2023/07/03 03:04:51;;;;;;;7.50;1.67;;;15.80;99.90;;;;;;5071243;28;20558;-72
2023/07/03 03:07:17;;;;;;;6.78;1.95;;;15.80;99.90;;;;;;5063228;28;20058;-72
2023/07/03 03:09:42;;;;;;;13.80;1.58;;;15.70;99.90;;;;;;5073737;28;20028;-72
2023/07/03 03:12:09;;;;;;;8.65;1.75;;;15.80;99.90;;;;;;5075651;28;20398;-72
2023/07/03 03:14:34;;;;;;;6.85;2.17;;;15.80;99.90;;;;;;5060855;28;20047;-72
2023/07/03 03:17:00;;;;;;;9.05;1.70;;;15.80;99.90;;;;;;5078068;28;20040;-72
2023/07/03 03:19:26;;;;;;;6.20;1.42;;;15.80;99.90;;;;;;5073541;28;20112;-72
2023/07/03 03:21:51;;;;;;;4.40;1.45;;;15.70;99.90;;;;;;5068847;28;20078;-72
2023/07/03 03:24:18;;;;;;;5.63;1.27;;;15.70;99.90;;;;;;5059878;28;20151;-72
2023/07/03 03:26:43;;;;;;;13.15;1.80;;;15.70;99.90;;;;;;5075167;28;20527;-71
2023/07/03 03:29:09;;;;;;;6.22;1.63;;;15.70;99.90;;;;;;5077047;28;20047;-72
2023/07/03 03:31:35;;;;;;;6.45;1.40;;;15.70;99.90;;;;;;5068316;28;20115;-71
2023/07/03 03:34:00;;;;;;;10.00;1.63;;;15.70;99.90;;;;;;5078093;28;20444;-72
2023/07/03 03:36:26;;;;;;;5.50;1.15;;;15.60;99.90;;;;;;5074151;28;20566;-72
2023/07/03 03:38:52;;;;;;;5.68;0.90;;;15.60;99.90;;;;;;5082197;28;20094;-72
2023/07/03 03:41:17;;;;;;;4.00;1.50;;;15.50;99.90;;;;;;5061307;28;20313;-71
2023/07/03 03:43:46;;;;;;;4.55;1.02;;;15.50;99.90;;;;;;5096471;28;20072;-72
2023/07/03 03:46:12;;;;;;;4.15;1.05;;;15.50;99.90;;;;;;5071206;28;20036;-71
2023/07/03 03:48:37;;;;;;;4.18;1.00;;;15.50;99.90;;;;;;5068699;28;20397;-72
2023/07/03 03:51:03;;;;;;;3.47;0.70;;;15.50;99.90;;;;;;5071642;28;20068;-72
2023/07/03 03:53:29;;;;;;;4.78;1.00;;;15.40;99.90;;;;;;5069869;28;20052;-72
2023/07/03 03:55:54;;;;;;;2.55;0.80;;;15.40;99.90;;;;;;5069800;28;20035;-72
2023/07/03 03:58:21;;;;;;;6.05;0.90;;;15.40;99.90;;;;;;5052837;28;20629;-71
2023/07/03 04:00:46;;;;;;;2.75;0.60;;;15.40;99.90;;;;;;5071317;28;20648;-72
2023/07/03 04:03:12;;;;;;;6.30;1.15;;;15.30;99.90;;;;;;5075199;28;20028;-71
2023/07/03 04:05:40;;;;;;;2.75;0.98;;;15.30;99.90;;;;;;5065031;28;20482;-72
2023/07/03 04:08:06;;;;;;;2.58;1.00;;;15.30;99.90;;;;;;5071042;28;20114;-71
2023/07/03 04:10:31;;;;;;;2.35;1.10;;;15.20;99.90;;;;;;5072239;28;20154;-71
2023/07/03 04:12:57;;;;;;;2.10;0.57;;;15.20;99.90;;;;;;5073786;28;20119;-72
2023/07/03 04:15:23;;;;;;;5.70;0.70;;;15.20;99.90;;;;;;5070502;28;20036;-72
2023/07/03 04:17:49;;;;;;;2.00;0.57;;;15.20;99.90;;;;;;5071049;28;20498;-72
2023/07/03 04:20:14;;;;;;;1.15;0.43;;;15.20;99.90;;;;;;5064844;28;20460;-72
2023/07/03 04:22:41;;;;;;;3.95;0.73;;;15.20;99.70;;;;;;5055095;28;20029;-72
2023/07/03 04:25:08;;;;;;;5.35;0.80;;;15.10;99.60;;;;;;5068567;28;20052;-72
2023/07/03 04:27:34;;;;;;;1.30;0.60;;;15.20;99.50;;;;;;5072859;28;20055;-72
2023/07/03 04:30:04;;;;;;;4.80;0.73;;;15.20;99.50;;;;;;5068471;28;20064;-72
2023/07/03 04:32:30;;;;;;;3.08;0.80;;;15.20;99.30;;;;;;5054869;28;20056;-72
2023/07/03 04:34:57;;;;;;;4.78;0.90;;;15.20;99.20;;;;;;5068902;28;20066;-72
2023/07/03 04:37:26;;;;;;;1.65;0.65;;;15.20;99.10;;;;;;5070210;28;20480;-72
2023/07/03 04:39:56;;;;;;;1.52;0.60;;;15.20;99.10;;;;;;5070805;28;20893;-72
2023/07/03 04:42:21;;;;;;;5.65;0.73;;;15.30;99.10;;;;;;5072455;28;20041;-72
2023/07/03 04:44:48;;;;;;;4.38;0.70;;;15.30;99.00;;;;;;5071998;28;20044;-72
2023/07/03 04:47:16;;;;;;;4.55;0.77;;;15.30;98.90;;;;;;5067496;28;20049;-72
2023/07/03 04:49:46;;;;;;;2.13;0.38;;;15.30;98.90;;;;;;5050425;28;20032;-72
2023/07/03 04:52:16;;;;;;;1.80;0.80;;;15.30;98.90;;;;;;5069600;28;20033;-72
2023/07/03 04:54:52;;;;;;;3.00;1.00;;;15.30;98.90;;;;;;5069432;28;20067;-72
2023/07/03 04:57:18;;;;;;;2.22;0.63;;;15.40;98.80;;;;;;5068663;28;20032;-72
2023/07/03 04:59:43;;;;;;;5.35;0.60;;;15.30;98.80;;;;;;5050973;28;20402;-72
2023/07/03 05:02:09;;;;;;;1.35;0.57;;;15.40;98.80;;;;;;5070279;28;20442;-73
2023/07/03 05:04:34;;;;;;;1.92;0.55;;;15.40;98.70;;;;;;5074958;28;20040;-72
2023/07/03 05:07:00;;;;;;;2.10;0.65;;;15.40;98.60;;;;;;5070479;28;20132;-72
2023/07/03 05:09:26;;;;;;;5.32;1.20;;;15.40;98.60;;;;;;5066095;28;20436;-72
2023/07/03 05:11:51;;;;;;;1.55;0.52;;;15.40;98.60;;;;;;5071880;28;20244;-72
2023/07/03 05:14:17;;;;;;;2.05;0.60;;;15.50;98.50;;;;;;5068883;28;20090;-72
2023/07/03 05:16:43;;;;;;;2.63;0.52;;;15.50;98.40;;;;;;5079979;28;20032;-72
2023/07/03 05:19:08;;;;;;;2.83;0.70;;;15.50;98.50;;;;;;5065024;28;20478;-72
2023/07/03 05:21:34;;;;;;;4.85;0.60;;;15.60;98.50;;;;;;5075795;28;20082;-72
2023/07/03 05:23:59;;;;;;;5.28;0.63;;;15.60;98.40;;;;;;5071910;28;20040;-72
2023/07/03 05:26:25;;;;;;;3.72;1.02;;;15.60;98.50;;;;;;5079680;28;20045;-72
2023/07/03 05:28:50;;;;;;;1.92;0.50;;;15.70;98.50;;;;;;5070006;28;20059;-72
2023/07/03 05:31:16;;;;;;;2.88;0.70;;;15.70;98.50;;;;;;5080563;28;20038;-72
2023/07/03 05:33:42;;;;;;;4.88;0.85;;;15.70;98.50;;;;;;5063449;28;20123;-72
2023/07/03 05:36:08;;;;;;;1.63;0.50;;;15.60;98.50;;;;;;5065981;28;20036;-72
2023/07/03 05:38:34;;;;;;;2.80;0.65;;;15.70;98.50;;;;;;5067577;28;20040;-72
2023/07/03 05:41:00;;;;;;;2.50;0.90;;;15.70;98.50;;;;;;5070714;28;20655;-72
2023/07/03 05:43:27;;;;;;;6.43;0.93;;;15.80;98.50;;;;;;5080854;28;20119;-72
2023/07/03 05:45:52;;;;;;;4.07;0.80;;;15.80;98.50;;;;;;5066613;28;20102;-72
2023/07/03 05:48:18;;;;;;;3.83;0.73;;;15.80;98.40;;;;;;5066780;28;20040;-72
2023/07/03 05:50:44;;;;;;;6.95;0.60;;;15.80;98.50;;;;;;5062781;28;20083;-72
2023/07/03 05:53:10;;;;;;;4.85;0.60;;;15.90;98.50;;;;;;5069480;28;20045;-72
2023/07/03 05:55:35;;;;;;;4.07;0.60;;;15.90;98.50;;;;;;5069433;28;20042;-72
2023/07/03 05:58:02;;;;;;;4.93;0.60;;;16.00;98.50;;;;;;5068291;28;20118;-72
2023/07/03 06:00:30;;;;;;;5.15;0.77;;;16.00;98.50;;;;;;5069055;28;20033;-72
2023/07/03 06:02:56;;;;;;;2.72;0.70;;;16.10;98.50;;;;;;5077713;28;20036;-72
2023/07/03 06:05:22;;;;;;;2.13;0.75;;;16.00;98.50;;;;;;5055674;28;20044;-72
2023/07/03 06:07:48;;;;;;;7.43;0.75;;;16.10;98.60;;;;;;5070668;28;20062;-72
2023/07/03 06:10:14;;;;;;;3.22;0.73;;;16.20;98.60;;;;;;5070593;28;20192;-72
2023/07/03 06:12:41;;;;;;;4.03;0.73;;;16.30;98.60;;;;;;5070857;28;20075;-72
2023/07/03 06:15:07;;;;;;;4.50;0.70;;;16.40;98.60;;;;;;5066426;28;20170;-72
2023/07/03 06:17:33;;;;;;;4.13;0.80;;;16.40;98.60;;;;;;5059662;28;20140;-72
2023/07/03 06:19:58;;;;;;;2.95;0.60;;;16.50;98.60;;;;;;5065988;28;20469;-72
2023/07/03 06:22:24;;;;;;;4.57;0.82;;;16.60;98.60;;;;;;5076348;28;20043;-72
2023/07/03 06:24:50;;;;;;;7.20;0.75;;;16.60;98.60;;;;;;5064784;28;20036;-72
2023/07/03 06:27:16;;;;;;;3.38;0.70;;;16.60;98.60;;;;;;5074627;28;20041;-71
2023/07/03 06:29:42;;;;;;;4.18;1.27;;;16.50;98.60;;;;;;5070522;28;20079;-71
2023/07/03 06:32:10;;;;;;;4.32;0.60;;;16.60;98.60;;;;;;5047811;28;20067;-72
2023/07/03 06:34:36;;;;;;;5.38;1.05;;;16.70;98.50;;;;;;5066497;28;20044;-72
2023/07/03 06:37:05;;;;;;;3.25;0.57;;;16.90;98.50;;;;;;5067031;28;20065;-71
2023/07/03 06:39:31;;;;;;;3.58;0.90;;;17.70;97.80;;;;;;5078973;28;20047;-72
2023/07/03 06:41:57;;;;;;;2.28;0.85;;;18.80;96.60;;;;;;5076844;28;20037;-73
2023/07/03 06:44:22;;;;;;;3.88;0.57;;;19.40;95.40;;;;;;5071957;28;20029;-74
2023/07/03 06:46:50;;;;;;;1.05;0.50;;;19.60;95.10;;;;;;5056856;28;20550;-73
2023/07/03 06:49:16;;;;;;;3.75;0.80;;;19.60;95.00;;;;;;5051680;28;20035;-74
2023/07/03 06:51:42;;;;;;;4.00;0.98;;;19.20;95.40;;;;;;5048867;28;20039;-73
2023/07/03 06:54:08;;;;;;;2.10;0.50;;;18.70;96.00;;;;;;5047843;28;20041;-73
2023/07/03 06:56:33;;;;;;;2.08;0.70;;;18.30;96.50;;;;;;5076805;28;20040;-73
2023/07/03 06:58:59;;;;;;;3.05;0.70;;;18.00;96.70;;;;;;5070849;28;20041;-73
2023/07/03 07:01:28;;;;;;;2.00;0.50;;;17.80;96.90;;;;;;5065752;28;20061;-74
2023/07/03 07:03:54;;;;;;;2.40;0.60;;;17.50;97.00;;;;;;5064133;28;20501;-74
2023/07/03 07:06:22;;;;;;;4.60;0.95;;;17.40;97.10;;;;;;5055767;28;20129;-73
2023/07/03 07:08:48;;;;;;;6.28;0.80;;;17.30;97.10;;;;;;5070472;28;20091;-73
2023/07/03 07:11:18;;;;;;;1.67;0.70;;;17.30;97.20;;;;;;5083044;28;20028;-74
2023/07/03 07:13:46;;;;;;;2.45;0.88;;;17.30;97.20;;;;;;5076242;28;20040;-73
2023/07/03 07:16:13;;;;;;;5.47;0.63;;;17.30;97.00;;;;;;5073435;28;20044;-73
2023/07/03 07:18:40;;;;;;;4.50;0.50;;;17.20;97.00;;;;;;5073699;28;20131;-73
2023/07/03 07:21:05;;;;;;;3.65;0.70;;;17.30;97.00;;;;;;5067203;28;20367;-73
2023/07/03 07:23:31;;;;;;;2.05;0.90;;;17.40;96.80;;;;;;5077137;28;20482;-72
2023/07/03 07:25:57;;;;;;;2.35;0.60;;;17.50;96.60;;;;;;5065911;28;20516;-72
2023/07/03 07:28:22;;;;;;;3.85;0.80;;;17.50;96.40;;;;;;5068898;28;20052;-72
2023/07/03 07:30:48;;;;;;;2.03;0.50;;;17.60;96.30;;;;;;5069386;28;20075;-72
2023/07/03 07:33:14;;;;;;;3.78;1.15;;;17.60;96.20;;;;;;5069805;28;20101;-72
2023/07/03 07:35:41;;;;;;;4.82;0.63;;;17.70;96.00;;;;;;5074602;28;21312;-72
2023/07/03 07:38:07;;;;;;;3.38;0.60;;;17.80;95.20;;;;;;5072876;28;20079;-73
2023/07/03 07:40:32;;;;;;;4.15;0.60;;;17.90;95.00;;;;;;5070196;28;20072;-72
2023/07/03 07:42:58;;;;;;;6.18;0.80;;;17.90;94.60;;;;;;5073773;28;20036;-72
2023/07/03 07:45:24;;;;;;;1.90;0.50;;;17.90;94.50;;;;;;5067575;28;20032;-73
2023/07/03 07:47:49;;;;;;;2.97;0.60;;;18.00;94.40;;;;;;5074028;28;20533;-72
2023/07/03 07:50:15;;;;;;;4.00;0.60;;;17.90;94.20;;;;;;5067662;28;20036;-71
2023/07/03 07:52:40;;;;;;;2.50;0.70;;;17.90;94.20;;;;;;5072795;28;20043;-70
2023/07/03 07:55:06;;;;;;;4.75;0.50;;;17.90;94.20;;;;;;5068643;28;20129;-70
2023/07/03 07:57:32;;;;;;;5.13;0.50;;;17.80;94.10;;;;;;5064761;28;20040;-70
2023/07/03 07:59:58;;;;;;;0.70;0.30;;;17.70;94.20;;;;;;5071289;28;20379;-71
2023/07/03 08:02:23;;;;;;;1.80;1.23;;;17.60;94.20;;;;;;5071315;28;20036;-71
2023/07/03 08:04:49;;;;;;;5.65;0.80;;;17.50;94.20;;;;;;5069832;28;20040;-70
2023/07/03 08:07:14;;;;;;;0.93;0.25;;;17.50;94.30;;;;;;5060133;28;20466;-70
2023/07/03 08:09:40;;;;;;;1.27;0.40;;;17.50;94.50;;;;;;5074765;28;20040;-70
2023/07/03 08:12:06;;;;;;;0.93;0.52;;;17.40;94.40;;;;;;5080407;28;20040;-70
2023/07/03 08:14:32;;;;;;;1.52;0.43;;;17.10;94.80;;;;;;5076993;28;20482;-71
2023/07/03 08:16:57;;;;;;;0.60;0.20;;;16.90;95.70;;;;;;5050108;28;20040;-71
2023/07/03 08:19:23;;;;;;;1.25;0.50;;;16.60;96.20;;;;;;5073720;28;20095;-71
2023/07/03 08:21:49;;;;;;;3.05;0.55;;;16.40;97.10;;;;;;5062923;28;20129;-71
2023/07/03 08:24:14;;;;;;;2.53;0.60;;;16.30;97.70;;;;;;5071540;28;20518;-70
2023/07/03 08:26:41;;;;;;;4.88;0.60;;;16.20;98.10;;;;;;5071815;28;20057;-70
2023/07/03 08:29:07;;;;;;;1.48;0.47;;;16.20;98.60;;;;;;5068681;28;20132;-70
2023/07/03 08:31:33;;;;;;;1.70;0.40;;;16.20;98.80;;;;;;5069080;28;20052;-70
2023/07/03 08:33:59;;;;;;;1.42;0.32;;;16.20;98.90;;;;;;5066148;28;20035;-71
2023/07/03 08:36:24;;;;;;;2.75;0.50;;;16.20;99.00;;;;;;5065417;28;20164;-71
2023/07/03 08:38:50;;;;;;;1.90;0.35;;;16.20;99.20;;;;;;5063876;28;20048;-70
2023/07/03 08:41:16;;;;;;;5.40;0.85;;;16.20;99.20;;;;;;5061802;28;20518;-70
2023/07/03 08:43:46;;;;;;;1.20;0.50;;;16.20;99.50;;;;;;5079867;28;20044;-70
2023/07/03 08:46:18;;;;;;;1.50;0.60;;;16.20;99.50;;;;;;5066846;28;20174;-71
2023/07/03 08:48:45;;;;;;;0.90;0.50;;;16.20;99.80;;;;;;5081425;28;20044;-70
2023/07/03 08:51:14;;;;;;;1.75;0.43;;;16.20;99.80;;;;;;5062682;28;20340;-70
2023/07/03 08:53:43;;;;;;;1.10;0.50;;;16.20;99.90;;;;;;5066167;28;20523;-71
2023/07/03 08:56:17;;;;;;;2.08;0.63;;;16.10;99.90;;;;;;5063727;28;20051;-71
2023/07/03 08:58:49;;;;;;;4.32;0.60;;;16.00;99.90;;;;;;5063596;28;20048;-71
2023/07/03 09:01:41;;;;;;;1.52;0.60;;;15.90;99.90;;;;;;5066951;28;20131;-70
2023/07/03 09:04:23;;;;;;;1.83;0.50;;;15.90;99.90;;;;;;5052160;28;20048;-71
2023/07/03 09:07:01;;;;;;;2.67;0.63;;;15.80;99.90;;;;;;5074794;28;20075;-71
2023/07/03 09:09:37;;;;;;;1.25;0.40;;;15.70;99.90;;;;;;5056410;28;20048;-71
2023/07/03 09:12:30;;;;;;;1.30;0.28;;;15.70;99.90;;;;;;5074593;28;20048;-71
2023/07/03 09:15:03;;;;;;;1.05;0.60;;;15.60;99.90;;;;;;5064976;28;20039;-70
2023/07/03 09:17:29;;;;;;;2.28;0.63;;;15.60;99.90;;;;;;5067256;28;20032;-70
2023/07/03 09:19:56;;;;;;;1.95;0.70;;;15.50;99.90;;;;;;5066749;28;20044;-71
2023/07/03 09:22:43;;;;;;;1.35;0.40;;;15.60;99.90;;;;;;5066033;28;20460;-70
2023/07/03 09:25:33;;;;;;;3.58;0.60;;;15.60;99.90;;;;;;5063544;28;20135;-71
2023/07/03 09:28:01;;;;;;;2.95;0.70;;;15.70;99.90;;;;;;5067854;28;20387;-71
2023/07/03 09:30:27;;;;;;;2.83;0.65;;;15.80;99.90;;;;;;5059553;28;20097;-70
2023/07/03 09:32:53;;;;;;;5.00;0.90;;;16.00;99.90;;;;;;5064982;28;20040;-73
2023/07/03 09:35:22;;;;;;;3.42;0.65;;;16.20;99.90;;;;;;5064276;28;20048;-72
2023/07/03 09:37:50;;;;;;;4.35;0.80;;;16.20;99.90;;;;;;5057292;28;20041;-74
2023/07/03 09:40:27;;;;;;;2.35;0.50;;;16.20;99.90;;;;;;5064478;28;20075;-75
2023/07/03 09:42:53;;;;;;;3.42;0.80;;;16.30;99.90;;;;;;5047635;28;20060;-73
2023/07/03 09:45:28;;;;;;;1.45;0.60;;;16.50;99.90;;;;;;5064340;28;20487;-73
2023/07/03 09:47:57;;;;;;;3.38;0.68;;;16.60;99.90;;;;;;5068467;28;20409;-73
2023/07/03 09:50:34;;;;;;;2.50;0.65;;;16.90;99.90;;;;;;5048548;28;20035;-73
2023/07/03 09:53:01;;;;;;;3.55;0.80;;;17.00;99.90;;;;;;5062399;28;20255;-74
2023/07/03 09:55:27;;;;;;;3.05;0.63;;;17.20;99.90;;;;;;5067857;28;20036;-73
2023/07/03 09:57:53;;;;;;;3.65;0.77;;;17.20;99.90;;;;;;5065701;28;20037;-73
2023/07/03 10:00:22;;;;;;;2.15;0.47;;;17.20;99.90;;;;;;5064097;28;20037;-73
2023/07/03 10:02:54;;;;;;;1.55;0.30;;;17.20;99.90;;;;;;5067141;28;20044;-73
2023/07/03 10:05:31;;;;;;;3.97;0.43;;;17.20;99.90;;;;;;5068160;28;20351;-73
2023/07/03 10:08:02;;;;;;;1.77;0.68;;;17.10;99.90;;;;;;5067209;28;20423;-73
2023/07/03 10:10:30;;;;;;;1.80;0.60;;;17.20;99.90;;;;;;5066142;28;20032;-73
2023/07/03 10:13:05;;;;;;;3.90;0.63;;;17.30;99.90;;;;;;5064336;28;20078;-73
2023/07/03 10:15:35;;;;;;;1.45;0.30;;;17.40;99.80;;;;;;5043379;28;20048;-73
2023/07/03 10:18:10;;;;;;;1.70;0.40;;;17.40;99.60;;;;;;5064407;28;20720;-73
2023/07/03 10:20:41;;;;;;;1.27;0.45;;;17.50;99.40;;;;;;5073917;28;20040;-73
2023/07/03 10:23:10;;;;;;;6.78;0.77;;;17.50;99.20;;;;;;5047547;28;20562;-73
2023/07/03 10:25:47;;;;;;;5.72;0.70;;;17.50;98.80;;;;;;5063971;28;20529;-73
2023/07/03 10:28:21;;;;;;;2.08;0.47;;;17.50;98.60;;;;;;5072434;28;20040;-73
2023/07/03 10:30:53;;;;;;;2.47;0.32;;;17.60;98.50;;;;;;5075083;28;20037;-71
2023/07/03 10:33:24;;;;;;;5.97;0.55;;;17.60;98.40;;;;;;5077499;28;20040;-72
2023/07/03 10:35:50;;;;;;;0.52;0.25;;;17.60;98.00;;;;;;5065589;28;20056;-72
2023/07/03 10:38:34;;;;;;;1.33;0.30;;;17.60;98.00;;;;;;5065943;28;20028;-72
2023/07/03 10:41:09;;;;;;;4.63;0.43;;;17.70;97.60;;;;;;5071530;28;20040;-73
2023/07/03 10:43:43;;;;;;;1.52;0.60;;;17.80;97.70;;;;;;5058594;28;20185;-72
2023/07/03 10:46:16;;;;;;;2.05;0.32;;;17.80;97.60;;;;;;5064608;28;20043;-73
2023/07/03 10:48:42;;;;;;;2.60;0.88;;;17.90;97.30;;;;;;5072658;28;20041;-73
2023/07/03 10:51:17;;;;;;;1.38;0.38;;;18.00;97.30;;;;;;5061912;28;20122;-74
2023/07/03 10:53:49;;;;;;;0.65;0.20;;;18.00;97.10;;;;;;5071228;28;20040;-73
2023/07/03 10:56:37;;;;;;;1.60;0.32;;;18.00;96.90;;;;;;5069002;28;20124;-73
2023/07/03 10:59:23;;;;;;;2.10;0.25;;;18.20;95.90;;;;;;5063855;28;20514;-74
2023/07/03 11:01:49;;;;;;;1.90;0.47;;;18.30;96.20;;;;;;5067993;28;20043;-74
2023/07/03 11:04:35;;;;;;;1.88;0.50;;;18.30;95.60;;;;;;5072897;28;20401;-74
2023/07/03 11:07:27;;;;;;;3.15;0.32;;;18.40;95.10;;;;;;5071956;28;20053;-73
2023/07/03 11:10:02;;;;;;;0.85;0.40;;;18.60;94.80;;;;;;5066425;28;20047;-73
2023/07/03 11:12:51;;;;;;;2.47;0.70;;;18.70;94.40;;;;;;5062367;28;20040;-73
2023/07/03 11:15:48;;;;;;;1.50;0.40;;;18.70;93.10;;;;;;5067093;28;20500;-73
2023/07/03 11:18:29;;;;;;;;;;;18.70;93.10;;;;;;5063779;28;20040;-73
2023/07/03 11:21:11;;;;;;;0.82;0.38;;;18.70;92.60;;;;;;5059024;28;19923;-73
2023/07/03 11:24:02;;;;;;;1.00;0.28;;;18.60;92.20;;;;;;5076492;28;20056;-72
2023/07/03 11:26:37;;;;;;;2.17;0.30;;;18.50;92.60;;;;;;5075123;28;20625;-74
2023/07/03 11:29:06;;;;;;;2.35;0.32;;;18.40;92.80;;;;;;5064770;28;20363;-73
2023/07/03 11:31:32;;;;;;;5.63;0.40;;;18.30;93.40;;;;;;5068990;28;20053;-74
2023/07/03 11:33:58;;;;;;;0.57;0.30;;;18.30;93.10;;;;;;5075100;28;20048;-73
2023/07/03 11:36:43;;;;;;;2.42;0.50;;;18.20;93.00;;;;;;5043757;28;20044;-73
2023/07/03 11:39:24;;;;;;;0.85;0.32;;;18.10;92.70;;;;;;5067053;28;20136;-73
2023/07/03 11:41:54;;;;;;;3.25;0.50;;;18.10;93.10;;;;;;5047429;28;20036;-73
2023/07/03 11:44:40;;;;;;;1.23;0.32;;;18.10;93.30;;;;;;5065985;28;20072;-73
2023/07/03 11:47:10;;;;;;;2.78;0.65;;;18.10;92.40;;;;;;5050367;28;20505;-73
2023/07/03 11:49:41;;;;;;;0.47;0.25;;;18.20;93.10;;;;;;5068612;28;20482;-73
2023/07/03 11:52:12;;;;;;;3.22;0.60;;;18.30;92.70;;;;;;5078767;28;20410;-73
2023/07/03 11:54:39;;;;;;;1.80;0.20;;;18.30;92.30;;;;;;5063079;28;20075;-73
2023/07/03 11:57:31;;;;;;;1.58;0.45;;;18.30;92.00;;;;;;5071206;28;20044;-73
2023/07/03 12:00:27;;;;;;;2.45;0.30;;;18.30;91.30;;;;;;5067472;28;20048;-73
2023/07/03 12:03:02;;;;;;;0.88;0.38;;;18.30;91.30;;;;;;5071510;28;20037;-74
2023/07/03 12:05:46;;;;;;;3.67;0.40;;;18.40;91.40;;;;;;5067230;28;20478;-73
2023/07/03 12:08:32;;;;;;;4.88;0.60;;;18.40;90.30;;;;;;5064606;28;20080;-73
2023/07/03 12:10:59;;;;;;;1.48;0.32;;;18.40;91.20;;;;;;5063906;28;20066;-73
2023/07/03 12:13:41;;;;;;;1.33;0.43;;;18.50;91.10;;;;;;5067362;28;20040;-73
2023/07/03 12:16:14;;;;;;;4.32;0.63;;;18.50;91.10;;;;;;5068809;28;20598;-73
2023/07/03 12:18:39;;;;;;;2.17;0.52;;;18.50;91.30;;;;;;5070266;28;20546;-73
2023/07/03 12:21:06;;;;;;;0.80;0.32;;;18.50;91.10;;;;;;5063827;28;20241;-74
2023/07/03 12:23:39;;;;;;;1.13;0.30;;;18.50;90.90;;;;;;5064844;28;20047;-73
2023/07/03 12:26:13;;;;;;;3.53;0.45;;;18.50;90.70;;;;;;5067476;28;20204;-71
2023/07/03 12:28:41;;;;;;;1.35;0.20;;;18.40;90.50;;;;;;5075885;28;20581;-71
2023/07/03 12:31:14;;;;;;;1.95;0.30;;;18.40;90.80;;;;;;5066746;28;20051;-71
2023/07/03 12:33:58;;;;;;;0.65;0.32;;;18.40;90.70;;;;;;5069383;28;20048;-73
2023/07/03 12:36:35;;;;;;;1.67;0.30;;;18.30;89.50;;;;;;5065523;28;20033;-71
2023/07/03 12:39:10;;;;;;;1.13;0.40;;;18.20;90.00;;;;;;5080093;28;20521;-71
2023/07/03 12:41:36;;;;;;;2.58;0.25;;;18.10;90.20;;;;;;5069580;28;20029;-71
2023/07/03 12:44:02;;;;;;;0.85;0.35;;;18.10;90.40;;;;;;5070512;28;20610;-72
2023/07/03 12:46:34;;;;;;;1.27;0.20;;;18.00;90.70;;;;;;5073484;28;20043;-71
2023/07/03 12:49:14;;;;;;;2.08;0.22;;;18.00;90.40;;;;;;5087251;28;20040;-71
2023/07/03 12:51:48;;;;;;;1.30;0.45;;;17.90;89.90;;;;;;5069735;28;20044;-71
2023/07/03 12:54:14;;;;;;;7.45;0.57;;;17.90;90.10;;;;;;5081960;28;20470;-71
2023/07/03 12:56:41;;;;;;;3.10;0.85;;;17.80;90.20;;;;;;5062661;28;20044;-71